This is the latest recevied weather packets stored in our database for station/object K4GSL. If no packets are shown the sender has not sent any weather packets the latest 10 day(s).
| Time | Temp. | Humidity | Pressure | Rain* | Wind** | Luminosity | Snow |
|---|---|---|---|---|---|---|---|
| 1777676296 | 21.11° C | 61% | 1019.2 hPa | 0 mm | - | 163 W/m² | - |
| 1777675993 | 21.67° C | 60% | 1019.2 hPa | 0 mm | - | 180 W/m² | - |
| 1777675689 | 20.56° C | 61% | 1019.3 hPa | 0 mm | - | 180 W/m² | - |
| 1777675387 | 20.56° C | 61% | 1019.5 hPa | 0 mm | - | 173 W/m² | - |
| 1777675083 | 21.11° C | 61% | 1019.4 hPa | 0 mm | - | 191 W/m² | - |
| 1777674779 | 20.56° C | 62% | 1019.4 hPa | 0 mm | - | 226 W/m² | - |
| 1777674476 | 20.56° C | 62% | 1019.4 hPa | 0 mm | - | 213 W/m² | - |
| 1777674174 | 21.11° C | 62% | 1019.4 hPa | 0 mm | - | 315 W/m² | - |
| 1777673870 | 21.67° C | 60% | 1019.4 hPa | 0 mm | - | 289 W/m² | - |
| 1777673566 | 21.11° C | 60% | 1019.6 hPa | 0 mm | - | 211 W/m² | - |
| 1777673264 | 20.56° C | 60% | 1019.6 hPa | 0 mm | - | 558 W/m² | - |
| 1777672961 | 20.56° C | 61% | 1019.8 hPa | 0 mm | - | 549 W/m² | - |
| 1777672659 | 20.56° C | 62% | 1019.9 hPa | 0 mm | - | 518 W/m² | - |
| 1777672359 | 21.11° C | 60% | 1019.8 hPa | 0 mm | - | 203 W/m² | - |
| 1777672054 | 20.56° C | 64% | 1020 hPa | 0 mm | - | 445 W/m² | - |
| 1777671751 | 20.56° C | 62% | 1019.7 hPa | 0 mm | - | 234 W/m² | - |
| 1777671447 | 20° C | 64% | 1019.8 hPa | 0 mm | - | 515 W/m² | - |
| 1777671143 | 20.56° C | 64% | 1020.1 hPa | 0 mm | - | 534 W/m² | - |
| 1777670840 | 21.11° C | 62% | 1019.9 hPa | 0 mm | - | 534 W/m² | - |
| 1777670536 | 21.11° C | 63% | 1020 hPa | 0 mm | - | 572 W/m² | - |
| 1777670233 | 20.56° C | 67% | 1020.1 hPa | 0 mm | - | 582 W/m² | - |
| 1777669930 | 20.56° C | 65% | 1020.2 hPa | 0 mm | - | 440 W/m² | - |
| 1777669628 | 20° C | 67% | 1020.2 hPa | 0 mm | - | 553 W/m² | - |
| 1777669324 | 20° C | 65% | 1020.3 hPa | 0 mm | - | 466 W/m² | - |
| 1777669020 | 19.44° C | 67% | 1020.3 hPa | 0 mm | - | 344 W/m² | - |
* Rain latest hour (hover to see other rain measurements)
** Current wind speed in m/s (hover to see current wind gust speed)